createdAt,value
2022-11-15T00:00:51.671Z,21.73
2022-11-15T00:03:08.744Z,17.45
2022-11-15T00:05:25.825Z,22.20
2022-11-15T00:07:55.283Z,22.33
2022-11-15T00:10:12.738Z,25.05
2022-11-15T00:12:29.982Z,22.05
2022-11-15T00:14:48.353Z,20.70
2022-11-15T00:17:05.377Z,20.85
2022-11-15T00:19:22.429Z,21.75
2022-11-15T00:21:39.677Z,22.02
2022-11-15T00:23:56.817Z,17.60
2022-11-15T00:26:15.369Z,19.48
2022-11-15T00:28:32.465Z,16.83
2022-11-15T00:30:50.529Z,22.65
2022-11-15T00:33:13.696Z,17.80
2022-11-15T00:35:30.365Z,20.23
2022-11-15T00:37:48.768Z,17.65
2022-11-15T00:40:08.921Z,17.02
2022-11-15T00:42:25.903Z,18.65
2022-11-15T00:44:42.740Z,13.77
2022-11-15T00:47:00.864Z,16.52
2022-11-15T00:49:17.873Z,13.07
2022-11-15T00:51:34.766Z,15.85
2022-11-15T00:53:51.763Z,15.93
2022-11-15T00:56:09.164Z,12.07
2022-11-15T00:58:26.031Z,13.35
2022-11-15T01:00:42.862Z,16.83
2022-11-15T01:03:02.299Z,17.08
2022-11-15T01:05:19.387Z,15.75
2022-11-15T01:07:36.629Z,17.17
2022-11-15T01:09:53.628Z,12.40
2022-11-15T01:12:10.739Z,14.45
2022-11-15T01:14:27.978Z,14.60
2022-11-15T01:16:44.374Z,13.65
2022-11-15T01:19:02.617Z,12.68
2022-11-15T01:21:21.760Z,15.30
2022-11-15T01:23:39.149Z,15.75
2022-11-15T01:26:01.324Z,12.75
2022-11-15T01:28:18.551Z,13.52
2022-11-15T01:30:35.169Z,15.82
2022-11-15T01:32:52.128Z,14.77
2022-11-15T01:35:10.536Z,15.43
2022-11-15T01:37:27.332Z,17.10
2022-11-15T01:39:43.898Z,18.95
2022-11-15T01:42:00.640Z,22.70
2022-11-15T01:44:41.350Z,24.48
2022-11-15T01:46:58.086Z,19.17
2022-11-15T01:49:19.668Z,20.67
2022-11-15T01:51:38.676Z,22.00
2022-11-15T01:54:00.758Z,18.52
2022-11-15T01:56:22.342Z,15.57
2022-11-15T01:58:41.227Z,17.92
2022-11-15T02:01:00.798Z,17.85
2022-11-15T02:03:17.926Z,14.45
2022-11-15T02:05:37.423Z,18.33
2022-11-15T02:07:56.586Z,18.63
2022-11-15T02:10:16.416Z,16.33
2022-11-15T02:12:33.713Z,18.80
2022-11-15T02:14:54.223Z,18.30
2022-11-15T02:17:27.867Z,16.48
2022-11-15T02:20:17.734Z,16.15
2022-11-15T02:22:46.363Z,14.40
2022-11-15T02:25:32.683Z,15.93
2022-11-15T02:28:26.835Z,12.97
2022-11-15T02:30:49.958Z,11.93
2022-11-15T02:33:16.357Z,10.85
2022-11-15T02:35:46.716Z,11.20
2022-11-15T02:38:14.808Z,12.27
2022-11-15T02:40:41.051Z,11.95
2022-11-15T02:43:19.741Z,8.48
2022-11-15T02:45:41.718Z,8.40
2022-11-15T02:48:01.716Z,6.43
2022-11-15T02:50:21.690Z,10.27
2022-11-15T02:52:38.429Z,8.85
2022-11-15T02:54:56.431Z,7.15
2022-11-15T02:57:18.919Z,5.50
2022-11-15T03:00:04.518Z,7.22
2022-11-15T03:02:34.004Z,7.40
2022-11-15T03:04:57.265Z,8.55
2022-11-15T03:07:21.611Z,7.25
2022-11-15T03:09:45.027Z,10.10
2022-11-15T03:12:07.718Z,9.32
2022-11-15T03:14:31.761Z,9.35
2022-11-15T03:16:53.268Z,9.45
2022-11-15T03:19:24.469Z,8.40
2022-11-15T03:21:43.401Z,8.00
2022-11-15T03:24:04.898Z,5.90
2022-11-15T03:26:25.900Z,8.63
2022-11-15T03:28:46.410Z,8.45
2022-11-15T03:31:24.664Z,9.45
2022-11-15T03:33:42.961Z,8.57
2022-11-15T03:36:00.649Z,6.15
2022-11-15T03:38:24.321Z,9.23
2022-11-15T03:40:43.140Z,11.38
2022-11-15T03:43:06.652Z,10.98
2022-11-15T03:45:29.407Z,8.95
2022-11-15T03:47:51.552Z,9.75
2022-11-15T03:50:14.524Z,8.07
2022-11-15T03:52:35.852Z,9.07
2022-11-15T03:54:56.148Z,6.78
2022-11-15T03:57:12.842Z,9.60
2022-11-15T03:59:29.771Z,9.88
2022-11-15T04:01:47.027Z,8.82
2022-11-15T04:04:04.083Z,7.55
2022-11-15T04:06:21.295Z,8.98
2022-11-15T04:08:38.149Z,9.40
2022-11-15T04:10:56.865Z,7.75
2022-11-15T04:13:13.734Z,9.85
2022-11-15T04:15:31.006Z,9.35
2022-11-15T04:17:49.418Z,6.45
2022-11-15T04:20:26.357Z,10.55
2022-11-15T04:23:00.630Z,7.68
2022-11-15T04:25:21.976Z,9.48
2022-11-15T04:27:41.639Z,7.07
2022-11-15T04:29:59.588Z,9.65
2022-11-15T04:32:16.568Z,8.25
2022-11-15T04:34:33.354Z,11.15
2022-11-15T04:37:08.125Z,10.18
2022-11-15T04:39:24.952Z,6.25
2022-11-15T04:41:41.975Z,8.27
2022-11-15T04:44:00.079Z,11.75
2022-11-15T04:46:17.083Z,16.55
2022-11-15T04:48:34.019Z,19.52
2022-11-15T04:50:54.077Z,12.88
2022-11-15T04:53:11.072Z,9.73
2022-11-15T04:55:28.163Z,13.57
2022-11-15T04:57:45.194Z,11.52
2022-11-15T05:00:04.964Z,8.13
2022-11-15T05:02:23.786Z,8.30
2022-11-15T05:04:39.786Z,10.40
2022-11-15T05:06:57.146Z,9.40
2022-11-15T05:09:15.476Z,11.60
2022-11-15T05:11:32.509Z,7.80
2022-11-15T05:13:49.988Z,9.38
2022-11-15T05:16:08.938Z,8.35
2022-11-15T05:18:25.495Z,10.63
2022-11-15T05:20:42.191Z,7.95
2022-11-15T05:22:59.402Z,7.93
2022-11-15T05:25:16.850Z,9.82
2022-11-15T05:27:34.905Z,9.73
2022-11-15T05:29:51.649Z,12.88
2022-11-15T05:32:11.698Z,12.20
2022-11-15T05:34:28.976Z,8.20
2022-11-15T05:36:46.905Z,11.48
2022-11-15T05:39:09.427Z,10.65
2022-11-15T05:41:33.197Z,10.05
2022-11-15T05:43:52.268Z,9.13
2022-11-15T05:46:09.356Z,13.00
2022-11-15T05:48:28.103Z,10.73
2022-11-15T05:50:54.125Z,12.40
2022-11-15T05:53:14.701Z,14.05
2022-11-15T05:55:31.970Z,10.60
2022-11-15T05:57:49.450Z,11.35
2022-11-15T06:00:07.844Z,11.18
2022-11-15T06:02:25.098Z,11.20
2022-11-15T06:04:43.527Z,13.80
2022-11-15T06:07:00.932Z,14.23
2022-11-15T06:09:17.681Z,11.68
2022-11-15T06:11:34.710Z,14.13
2022-11-15T06:13:52.068Z,10.93
2022-11-15T06:16:09.508Z,12.90
2022-11-15T06:18:26.280Z,10.25
2022-11-15T06:20:44.421Z,11.50
2022-11-15T06:23:03.150Z,13.65
2022-11-15T06:25:20.368Z,10.10
2022-11-15T06:27:37.386Z,10.68
2022-11-15T06:29:54.733Z,14.23
2022-11-15T06:32:12.110Z,13.85
2022-11-15T06:35:23.098Z,10.38
2022-11-15T06:37:44.873Z,14.05
2022-11-15T06:40:02.175Z,11.32
2022-11-15T06:42:18.952Z,12.02
2022-11-15T06:44:35.845Z,11.82
2022-11-15T06:46:53.035Z,12.63
2022-11-15T06:49:10.283Z,14.75
2022-11-15T06:51:27.098Z,14.18
2022-11-15T06:53:44.823Z,12.13
2022-11-15T06:56:02.744Z,10.80
2022-11-15T06:58:20.290Z,11.15
2022-11-15T07:00:37.200Z,10.15
2022-11-15T07:02:54.260Z,12.48
2022-11-15T07:05:11.064Z,10.98
2022-11-15T07:07:28.385Z,16.33
2022-11-15T07:09:46.634Z,12.10
2022-11-15T07:12:07.749Z,12.85
2022-11-15T07:14:26.113Z,42.03
2022-11-15T07:16:43.110Z,34.90
2022-11-15T07:19:00.310Z,16.00
2022-11-15T07:21:24.855Z,13.13
2022-11-15T07:23:44.726Z,10.52
2022-11-15T07:26:03.308Z,9.60
2022-11-15T07:28:20.504Z,8.00
2022-11-15T07:30:41.250Z,9.77
2022-11-15T07:33:02.817Z,8.27
2022-11-15T07:35:19.560Z,9.07
2022-11-15T07:37:36.361Z,8.55
2022-11-15T07:39:53.460Z,14.70
2022-11-15T07:42:32.839Z,10.32
2022-11-15T07:44:52.763Z,8.95
2022-11-15T07:47:09.563Z,9.75
2022-11-15T07:49:26.384Z,9.90
2022-11-15T07:51:43.191Z,9.73
2022-11-15T07:54:01.862Z,7.85
2022-11-15T07:56:19.176Z,12.23
2022-11-15T07:58:37.094Z,12.23
2022-11-15T08:00:53.916Z,13.20
2022-11-15T08:03:12.567Z,9.68
2022-11-15T08:05:29.706Z,7.95
2022-11-15T08:07:46.197Z,8.98
2022-11-15T08:10:08.334Z,9.55
2022-11-15T08:12:25.353Z,10.13
2022-11-15T08:14:43.864Z,8.70
2022-11-15T08:17:00.572Z,9.32
2022-11-15T08:19:18.022Z,8.63
2022-11-15T08:21:46.863Z,9.45
2022-11-15T08:24:04.241Z,9.27
2022-11-15T08:26:21.348Z,10.68
2022-11-15T08:28:38.467Z,9.63
2022-11-15T08:30:56.889Z,11.07
2022-11-15T08:33:15.837Z,9.75
2022-11-15T08:35:32.924Z,11.75
2022-11-15T08:37:50.193Z,9.07
2022-11-15T08:40:08.925Z,11.88
2022-11-15T08:42:26.129Z,10.75
2022-11-15T08:44:42.967Z,9.70
2022-11-15T08:47:01.308Z,8.90
2022-11-15T08:49:18.283Z,9.20
2022-11-15T08:51:39.191Z,8.13
2022-11-15T08:54:02.684Z,8.80
2022-11-15T08:56:19.220Z,8.48
2022-11-15T08:58:36.474Z,9.98
2022-11-15T09:00:53.651Z,13.15
2022-11-15T09:03:12.213Z,13.43
2022-11-15T09:05:29.205Z,11.25
2022-11-15T09:07:45.854Z,12.95
2022-11-15T09:10:19.889Z,8.98
2022-11-15T09:12:36.861Z,9.13
2022-11-15T09:14:53.400Z,8.15
2022-11-15T09:17:11.166Z,11.55
2022-11-15T09:19:29.567Z,12.20
2022-11-15T09:21:46.010Z,9.77
2022-11-15T09:24:03.701Z,8.75
2022-11-15T09:26:21.068Z,8.15
2022-11-15T09:28:39.180Z,7.68
2022-11-15T09:30:58.691Z,10.05
2022-11-15T09:33:15.715Z,10.13
2022-11-15T09:35:35.208Z,7.25
2022-11-15T09:37:56.140Z,10.35
2022-11-15T09:40:17.525Z,17.10
2022-11-15T09:42:50.822Z,9.73
2022-11-15T09:45:17.263Z,10.48
2022-11-15T09:47:53.008Z,11.55
2022-11-15T09:50:13.701Z,12.65
2022-11-15T09:52:14.138Z,10.52
2022-11-15T09:54:46.076Z,10.80
2022-11-15T09:56:39.346Z,9.13
2022-11-15T09:58:46.743Z,11.45
2022-11-15T10:00:50.229Z,10.60
2022-11-15T10:03:01.603Z,10.50
2022-11-15T10:05:01.428Z,9.52
2022-11-15T10:07:05.001Z,9.85
2022-11-15T10:09:12.774Z,8.93
2022-11-15T10:13:35.786Z,9.40
2022-11-15T10:15:34.676Z,10.25
2022-11-15T10:17:57.428Z,9.60
2022-11-15T10:20:06.263Z,18.58
2022-11-15T10:22:20.810Z,8.68
2022-11-15T10:24:27.355Z,9.45
2022-11-15T10:26:26.049Z,10.30
2022-11-15T10:28:29.765Z,10.27
2022-11-15T10:30:40.290Z,10.60
2022-11-15T10:32:38.760Z,8.32
2022-11-15T10:34:38.920Z,9.85
2022-11-15T10:36:37.317Z,13.57
2022-11-15T10:38:35.580Z,14.48
2022-11-15T10:40:35.470Z,11.90
2022-11-15T10:42:33.738Z,10.88
2022-11-15T10:44:32.321Z,12.00
2022-11-15T10:46:47.400Z,13.80
2022-11-15T10:48:46.644Z,9.52
2022-11-15T10:50:46.324Z,10.57
2022-11-15T10:52:48.879Z,11.27
2022-11-15T10:54:50.957Z,11.23
2022-11-15T10:56:54.011Z,11.82
2022-11-15T10:58:55.552Z,17.58
2022-11-15T11:03:00.072Z,12.45
2022-11-15T11:04:58.267Z,10.55
2022-11-15T11:07:00.031Z,11.50
2022-11-15T11:09:01.788Z,9.05
2022-11-15T11:11:03.354Z,12.75
2022-11-15T11:13:17.644Z,10.70
2022-11-15T11:15:17.969Z,12.45
2022-11-15T11:17:24.517Z,11.30
2022-11-15T11:19:46.426Z,14.35
2022-11-15T11:22:06.383Z,12.88
2022-11-15T11:24:11.653Z,13.18
2022-11-15T11:26:28.983Z,14.00
2022-11-15T11:28:41.896Z,12.35
2022-11-15T11:30:50.237Z,12.65
2022-11-15T11:33:18.739Z,12.95
2022-11-15T11:35:24.738Z,12.25
2022-11-15T11:37:29.413Z,9.80
2022-11-15T11:39:39.004Z,14.10
2022-11-15T11:41:48.857Z,16.98
2022-11-15T11:44:01.108Z,14.80
2022-11-15T11:46:22.532Z,12.45
2022-11-15T11:48:33.667Z,12.85
2022-11-15T11:50:33.325Z,14.48
2022-11-15T11:52:36.868Z,11.88
2022-11-15T11:54:42.077Z,13.68
2022-11-15T11:56:43.656Z,14.32
2022-11-15T11:58:45.130Z,12.40
2022-11-15T12:00:49.503Z,12.00
2022-11-15T12:04:53.036Z,14.13
2022-11-15T12:06:55.821Z,13.63
2022-11-15T12:09:00.228Z,11.30
2022-11-15T12:13:06.429Z,12.77
2022-11-15T12:15:14.512Z,9.82
2022-11-15T12:17:15.583Z,13.20
2022-11-15T12:19:13.796Z,11.60
2022-11-15T12:21:22.766Z,24.67
2022-11-15T12:23:29.895Z,16.23
2022-11-15T12:27:35.793Z,16.52
2022-11-15T12:29:38.930Z,15.35
2022-11-15T12:31:41.552Z,12.98
2022-11-15T12:33:44.201Z,12.80
2022-11-15T12:35:46.268Z,12.93
2022-11-15T12:37:56.111Z,14.88
2022-11-15T12:40:38.718Z,12.38
2022-11-15T12:42:41.654Z,11.95
2022-11-15T12:45:00.119Z,14.35
2022-11-15T12:47:07.454Z,11.05
2022-11-15T12:49:12.444Z,13.85
2022-11-15T12:51:14.697Z,12.60
2022-11-15T12:53:29.984Z,13.57
2022-11-15T12:55:33.914Z,15.00
2022-11-15T12:57:43.468Z,13.88
2022-11-15T12:59:59.987Z,13.30
2022-11-15T13:02:01.116Z,14.82
2022-11-15T13:04:28.926Z,13.93
2022-11-15T13:06:43.925Z,14.27
2022-11-15T13:08:52.185Z,13.27
2022-11-15T13:10:50.398Z,11.80
2022-11-15T13:12:55.835Z,13.93
2022-11-15T13:14:55.557Z,42.38
2022-11-15T13:17:01.010Z,17.60
2022-11-15T13:19:02.035Z,60.35
2022-11-15T13:21:23.760Z,23.85
2022-11-15T13:23:24.719Z,12.45
2022-11-15T13:25:48.967Z,14.23
2022-11-15T13:27:49.852Z,15.20
2022-11-15T13:29:48.567Z,15.00
2022-11-15T13:31:47.484Z,11.70
2022-11-15T13:33:46.729Z,12.77
2022-11-15T13:35:48.858Z,12.00
2022-11-15T13:37:51.982Z,13.00
2022-11-15T13:39:51.431Z,13.85
2022-11-15T13:41:51.475Z,12.68
2022-11-15T13:43:52.447Z,11.82
2022-11-15T13:46:08.946Z,11.50
2022-11-15T13:48:10.096Z,11.55
2022-11-15T13:50:13.161Z,10.77
2022-11-15T13:52:17.486Z,12.85
2022-11-15T13:54:22.844Z,9.15
2022-11-15T13:56:22.956Z,18.98
2022-11-15T13:58:24.168Z,30.88
2022-11-15T14:00:36.628Z,15.15
2022-11-15T14:02:37.334Z,10.90
2022-11-15T14:04:41.650Z,12.25
2022-11-15T14:06:48.172Z,11.55
2022-11-15T14:09:05.344Z,10.45
2022-11-15T14:11:17.352Z,12.40
2022-11-15T14:13:31.874Z,11.80
2022-11-15T14:15:33.262Z,11.07
2022-11-15T14:17:45.619Z,11.43
2022-11-15T14:19:48.796Z,13.63
2022-11-15T14:22:21.514Z,14.35
2022-11-15T14:24:25.064Z,14.32
2022-11-15T14:26:51.071Z,14.45
2022-11-15T14:28:59.542Z,10.55
2022-11-15T14:31:09.314Z,10.68
2022-11-15T14:33:21.653Z,11.27
2022-11-15T14:38:02.239Z,9.90
2022-11-15T14:40:01.005Z,11.35
2022-11-15T14:42:00.661Z,11.63
2022-11-15T14:43:59.087Z,11.02
2022-11-15T14:46:11.861Z,11.20
2022-11-15T14:48:34.458Z,10.77
2022-11-15T14:50:58.171Z,9.98
2022-11-15T14:53:28.975Z,9.05
2022-11-15T14:56:08.794Z,9.95
2022-11-15T14:58:23.828Z,9.85
2022-11-15T15:00:30.910Z,27.13
2022-11-15T15:02:57.608Z,15.07
2022-11-15T15:05:17.260Z,11.13
2022-11-15T15:07:20.151Z,10.48
2022-11-15T15:09:41.151Z,10.48
2022-11-15T15:11:52.567Z,9.77
2022-11-15T15:13:56.916Z,8.70
2022-11-15T15:16:12.182Z,12.60
2022-11-15T15:18:12.678Z,9.05
2022-11-15T15:20:12.261Z,10.95
2022-11-15T15:22:15.160Z,10.40
2022-11-15T15:24:17.052Z,8.95
2022-11-15T15:26:15.425Z,13.80
2022-11-15T15:28:13.679Z,10.90
2022-11-15T15:30:14.392Z,11.68
2022-11-15T15:32:14.546Z,11.60
2022-11-15T15:34:16.768Z,14.32
2022-11-15T15:36:18.892Z,12.98
2022-11-15T15:38:17.014Z,11.13
2022-11-15T15:40:19.221Z,14.40
2022-11-15T15:42:17.377Z,13.70
2022-11-15T15:44:15.556Z,12.98
2022-11-15T15:46:18.324Z,10.95
2022-11-15T15:48:18.189Z,11.77
2022-11-15T15:50:23.477Z,12.95
2022-11-15T15:52:21.828Z,10.68
2022-11-15T15:54:19.840Z,11.23
2022-11-15T15:56:18.011Z,11.00
2022-11-15T15:58:16.346Z,10.45
2022-11-15T16:00:15.793Z,13.73
2022-11-15T16:02:15.651Z,13.50
2022-11-15T16:04:13.955Z,11.48
2022-11-15T16:06:40.291Z,14.98
2022-11-15T16:09:00.400Z,12.38
2022-11-15T16:10:59.908Z,12.30
2022-11-15T16:12:59.893Z,14.52
2022-11-15T16:15:23.035Z,11.20
2022-11-15T16:21:49.809Z,11.05
2022-11-15T16:24:56.736Z,15.95
2022-11-15T16:27:48.329Z,10.70
2022-11-15T16:32:59.935Z,13.63
2022-11-15T16:38:05.093Z,14.18
2022-11-15T16:43:09.346Z,13.82
2022-11-15T16:45:50.281Z,12.90
2022-11-15T16:48:22.416Z,15.23
2022-11-15T16:51:11.507Z,9.45
2022-11-15T16:53:19.241Z,12.07
2022-11-15T16:55:56.747Z,13.40
2022-11-15T16:58:25.310Z,14.60
2022-11-15T17:03:02.151Z,12.15
2022-11-15T17:08:01.971Z,13.85
2022-11-15T17:10:02.618Z,17.60
2022-11-15T17:15:03.650Z,14.20
2022-11-15T17:17:25.927Z,18.85
2022-11-15T17:19:35.164Z,17.58
2022-11-15T17:21:50.599Z,14.18
2022-11-15T17:24:27.942Z,14.40
2022-11-15T17:26:40.831Z,11.32
2022-11-15T17:28:41.793Z,14.48
2022-11-15T17:30:45.050Z,15.88
2022-11-15T17:32:44.969Z,14.45
2022-11-15T17:34:46.866Z,14.95
2022-11-15T17:36:45.176Z,14.85
2022-11-15T17:38:59.265Z,15.07
2022-11-15T17:41:12.146Z,18.95
2022-11-15T17:43:12.883Z,19.40
2022-11-15T17:45:15.085Z,15.98
2022-11-15T17:47:13.682Z,17.00
2022-11-15T17:49:12.126Z,16.90
2022-11-15T17:51:15.768Z,15.73
2022-11-15T17:53:14.292Z,15.43
2022-11-15T17:55:19.865Z,17.15
2022-11-15T17:57:18.323Z,17.23
2022-11-15T17:59:21.524Z,18.75
2022-11-15T18:01:26.520Z,16.70
2022-11-15T18:03:24.847Z,18.83
2022-11-15T18:05:23.469Z,18.13
2022-11-15T18:07:21.751Z,19.17
2022-11-15T18:09:22.023Z,19.52
2022-11-15T18:11:22.070Z,16.88
2022-11-15T18:13:20.250Z,14.70
2022-11-15T18:15:19.245Z,21.50
2022-11-15T18:17:19.364Z,17.45
2022-11-15T18:19:17.823Z,16.95
2022-11-15T18:21:21.433Z,14.90
2022-11-15T18:25:22.007Z,12.13
2022-11-15T18:27:25.346Z,16.08
2022-11-15T18:29:26.971Z,14.82
2022-11-15T18:31:27.327Z,18.05
2022-11-15T18:33:28.504Z,21.42
2022-11-15T18:35:30.411Z,16.40
2022-11-15T18:37:31.093Z,20.20
2022-11-15T18:39:30.899Z,18.88
2022-11-15T18:41:38.198Z,36.58
2022-11-15T18:43:37.071Z,22.45
2022-11-15T18:45:35.881Z,17.88
2022-11-15T18:47:34.474Z,19.90
2022-11-15T18:49:43.204Z,17.65
2022-11-15T18:51:44.205Z,40.67
2022-11-15T18:53:44.682Z,39.40
2022-11-15T18:55:43.049Z,35.78
2022-11-15T18:57:42.356Z,26.52
2022-11-15T18:59:45.445Z,25.33
2022-11-15T19:01:50.117Z,22.20
2022-11-15T19:03:50.506Z,21.60
2022-11-15T19:05:50.315Z,15.23
2022-11-15T19:07:52.133Z,21.17
2022-11-15T19:09:51.251Z,20.65
2022-11-15T19:11:55.348Z,19.40
2022-11-15T19:14:04.454Z,24.50
2022-11-15T19:16:09.868Z,20.23
2022-11-15T19:18:08.505Z,19.48
2022-11-15T19:20:11.940Z,19.35
2022-11-15T19:22:16.238Z,20.08
2022-11-15T19:24:17.319Z,20.90
2022-11-15T19:26:17.360Z,27.15
2022-11-15T19:28:18.739Z,17.70
2022-11-15T19:30:19.683Z,17.60
2022-11-15T19:32:23.744Z,19.75
2022-11-15T19:34:22.925Z,20.77
2022-11-15T19:36:26.529Z,21.73
2022-11-15T19:38:26.491Z,17.73
2022-11-15T19:40:24.712Z,22.42
2022-11-15T19:42:22.881Z,16.65
2022-11-15T19:44:22.836Z,20.80
2022-11-15T19:46:23.741Z,28.33
2022-11-15T19:48:23.149Z,35.35
2022-11-15T19:50:21.781Z,25.73
2022-11-15T19:52:20.996Z,19.38
2022-11-15T19:54:20.575Z,19.92
2022-11-15T19:56:20.183Z,22.58
2022-11-15T19:58:19.324Z,22.63
2022-11-15T20:00:18.382Z,21.08
2022-11-15T20:02:16.752Z,24.13
2022-11-15T20:04:15.055Z,20.70
2022-11-15T20:06:16.360Z,21.95
2022-11-15T20:08:14.811Z,18.50
2022-11-15T20:10:18.124Z,18.60
2022-11-15T20:12:18.876Z,22.75
2022-11-15T20:14:17.148Z,21.05
2022-11-15T20:16:18.279Z,16.88
2022-11-15T20:18:16.812Z,17.83
2022-11-15T20:20:15.000Z,19.63
2022-11-15T20:22:13.292Z,22.05
2022-11-15T20:24:11.446Z,22.45
2022-11-15T20:26:13.860Z,27.67
2022-11-15T20:28:17.107Z,28.85
2022-11-15T20:30:15.476Z,24.17
2022-11-15T20:32:13.924Z,26.42
2022-11-15T20:34:12.129Z,21.90
2022-11-15T20:36:13.049Z,23.00
2022-11-15T20:38:11.889Z,25.17
2022-11-15T20:40:11.214Z,27.83
2022-11-15T20:42:10.915Z,27.83
2022-11-15T20:44:09.230Z,28.17
2022-11-15T20:46:10.692Z,28.58
2022-11-15T20:48:09.238Z,29.85
2022-11-15T20:50:35.516Z,25.85
2022-11-15T20:52:28.596Z,24.92
2022-11-15T20:54:28.907Z,24.50
2022-11-15T20:56:27.288Z,23.73
2022-11-15T20:58:30.517Z,25.08
2022-11-15T21:00:29.892Z,27.15
2022-11-15T21:02:32.260Z,25.77
2022-11-15T21:04:31.348Z,23.98
2022-11-15T21:06:29.994Z,28.63
2022-11-15T21:08:53.609Z,22.52
2022-11-15T21:11:10.614Z,29.80
2022-11-15T21:13:09.007Z,28.15
2022-11-15T21:15:26.504Z,25.05
2022-11-15T21:17:24.837Z,23.52
2022-11-15T21:19:28.079Z,27.17
2022-11-15T21:21:30.996Z,26.40
2022-11-15T21:23:29.381Z,25.90
2022-11-15T21:25:27.603Z,29.08
2022-11-15T21:27:26.270Z,26.60
2022-11-15T21:29:24.586Z,36.53
2022-11-15T21:31:24.697Z,37.08
2022-11-15T21:33:24.160Z,30.77
2022-11-15T21:35:22.665Z,24.60
2022-11-15T21:37:20.951Z,27.48
2022-11-15T21:39:19.224Z,29.90
2022-11-15T21:41:17.577Z,24.73
2022-11-15T21:43:16.508Z,30.45
2022-11-15T21:45:15.098Z,25.77
2022-11-15T21:47:15.151Z,30.17
2022-11-15T21:49:13.365Z,25.38
2022-11-15T21:51:13.012Z,22.83
2022-11-15T21:53:11.472Z,27.10
2022-11-15T21:55:10.790Z,28.48
2022-11-15T21:57:08.924Z,26.90
2022-11-15T21:59:07.501Z,22.10
2022-11-15T22:01:25.044Z,22.83
2022-11-15T22:03:24.690Z,25.17
2022-11-15T22:05:22.944Z,25.08
2022-11-15T22:07:21.183Z,27.05
2022-11-15T22:09:19.514Z,27.02
2022-11-15T22:11:20.852Z,26.88
2022-11-15T22:13:19.702Z,24.52
2022-11-15T22:15:18.330Z,21.60
2022-11-15T22:17:16.656Z,22.65
2022-11-15T22:19:16.379Z,23.75
2022-11-15T22:21:16.653Z,25.77
2022-11-15T22:23:15.140Z,26.20
2022-11-15T22:25:13.617Z,24.80
2022-11-15T22:27:12.021Z,25.45
2022-11-15T22:29:10.387Z,26.42
2022-11-15T22:31:09.832Z,22.48
2022-11-15T22:33:08.119Z,25.65
2022-11-15T22:35:09.087Z,24.08
2022-11-15T22:37:19.801Z,24.60
2022-11-15T22:39:18.982Z,21.77
2022-11-15T22:41:17.285Z,25.95
2022-11-15T22:43:17.342Z,25.70
2022-11-15T22:45:15.843Z,27.15
2022-11-15T22:47:17.464Z,23.92
2022-11-15T22:49:15.949Z,24.52
2022-11-15T22:51:16.260Z,25.63
2022-11-15T22:53:14.682Z,22.80
2022-11-15T22:55:13.417Z,24.50
2022-11-15T22:57:11.717Z,23.27
2022-11-15T22:59:10.296Z,29.10
2022-11-15T23:01:08.666Z,26.33
2022-11-15T23:03:06.978Z,22.95
2022-11-15T23:05:06.810Z,23.67
2022-11-15T23:07:06.564Z,26.90
2022-11-15T23:09:05.094Z,21.45
2022-11-15T23:11:21.798Z,24.77
2022-11-15T23:13:22.703Z,25.10
2022-11-15T23:15:21.159Z,27.20
2022-11-15T23:17:19.609Z,23.10
2022-11-15T23:19:17.856Z,24.60
2022-11-15T23:21:38.656Z,25.25
2022-11-15T23:23:37.392Z,23.90
2022-11-15T23:25:35.926Z,21.25
2022-11-15T23:27:34.208Z,24.45
2022-11-15T23:29:32.513Z,23.08
2022-11-15T23:31:50.857Z,23.65
2022-11-15T23:33:59.906Z,23.23
2022-11-15T23:35:58.363Z,21.58
2022-11-15T23:37:56.707Z,23.45
2022-11-15T23:39:56.497Z,20.35
2022-11-15T23:41:55.101Z,27.15
2022-11-15T23:43:53.889Z,22.20
2022-11-15T23:45:52.290Z,24.33
2022-11-15T23:47:50.539Z,25.63
2022-11-15T23:49:48.994Z,22.83
2022-11-15T23:51:47.797Z,22.73
2022-11-15T23:53:46.466Z,25.98
2022-11-15T23:55:54.713Z,25.13
2022-11-15T23:57:53.054Z,21.30
2022-11-15T23:59:51.427Z,23.48
